createdAt,value
2018-02-10T00:00:21.771Z,1.68
2018-02-10T00:01:02.345Z,1.73
2018-02-10T00:01:42.914Z,1.77
2018-02-10T00:02:23.486Z,1.7
2018-02-10T00:03:04.013Z,1.71
2018-02-10T00:03:44.578Z,1.74
2018-02-10T00:04:25.167Z,1.74
2018-02-10T00:05:05.757Z,1.71
2018-02-10T00:05:46.286Z,1.76
2018-02-10T00:06:26.824Z,1.74
2018-02-10T00:07:07.397Z,1.81
2018-02-10T00:07:47.999Z,1.78
2018-02-10T00:08:28.543Z,1.84
2018-02-10T00:09:09.104Z,1.78
2018-02-10T00:09:49.664Z,1.78
2018-02-10T00:10:30.215Z,1.81
2018-02-10T00:11:10.745Z,1.78
2018-02-10T00:11:51.303Z,1.84
2018-02-10T00:12:31.869Z,1.78
2018-02-10T00:13:12.475Z,1.91
2018-02-10T00:13:53.037Z,1.81
2018-02-10T00:14:33.604Z,1.88
2018-02-10T00:15:14.154Z,1.85
2018-02-10T00:15:54.717Z,1.94
2018-02-10T00:16:35.270Z,1.92
2018-02-10T00:17:15.826Z,1.92
2018-02-10T00:17:56.391Z,1.91
2018-02-10T00:18:36.961Z,1.97
2018-02-10T00:19:17.532Z,1.94
2018-02-10T00:19:58.109Z,1.89
2018-02-10T00:20:38.669Z,1.78
2018-02-10T00:21:19.217Z,1.85
2018-02-10T00:21:59.764Z,1.94
2018-02-10T00:22:40.320Z,1.87
2018-02-10T00:23:20.879Z,1.95
2018-02-10T00:24:01.442Z,1.88
2018-02-10T00:24:41.975Z,1.97
2018-02-10T00:25:22.542Z,1.92
2018-02-10T00:26:03.085Z,1.84
2018-02-10T00:26:43.633Z,1.92
2018-02-10T00:27:24.183Z,1.91
2018-02-10T00:28:04.752Z,1.91
2018-02-10T00:28:45.298Z,1.81
2018-02-10T00:29:25.882Z,1.85
2018-02-10T00:30:06.423Z,1.89
2018-02-10T00:30:46.980Z,1.88
2018-02-10T00:31:27.538Z,1.78
2018-02-10T00:32:08.106Z,1.87
2018-02-10T00:32:48.680Z,1.84
2018-02-10T00:33:29.240Z,1.77
2018-02-10T00:34:09.786Z,1.84
2018-02-10T00:34:50.334Z,1.81
2018-02-10T00:35:30.880Z,1.77
2018-02-10T00:36:11.494Z,1.77
2018-02-10T00:36:52.074Z,1.78
2018-02-10T00:37:32.627Z,1.84
2018-02-10T00:38:13.186Z,1.89
2018-02-10T00:38:53.748Z,1.76
2018-02-10T00:39:34.289Z,1.78
2018-02-10T00:40:14.884Z,1.78
2018-02-10T00:40:55.454Z,1.76
2018-02-10T00:41:36.023Z,1.78
2018-02-10T00:42:16.546Z,1.8
2018-02-10T00:42:57.102Z,1.74
2018-02-10T00:43:37.693Z,1.76
2018-02-10T00:44:18.291Z,1.74
2018-02-10T00:44:58.916Z,1.73
2018-02-10T00:45:39.478Z,1.7
2018-02-10T00:46:20.020Z,1.66
2018-02-10T00:47:00.578Z,1.7
2018-02-10T00:47:41.112Z,1.7
2018-02-10T00:48:21.676Z,1.74
2018-02-10T00:49:02.276Z,1.67
2018-02-10T00:49:42.829Z,1.62
2018-02-10T00:50:23.399Z,1.7
2018-02-10T00:51:03.980Z,1.59
2018-02-10T00:51:44.578Z,1.62
2018-02-10T00:52:25.175Z,1.66
2018-02-10T00:53:05.741Z,1.59
2018-02-10T00:53:46.287Z,1.6
2018-02-10T00:54:26.853Z,1.56
2018-02-10T00:55:07.451Z,1.59
2018-02-10T00:55:47.983Z,1.62
2018-02-10T00:56:28.577Z,1.67
2018-02-10T00:57:09.148Z,1.62
2018-02-10T00:57:49.718Z,1.7
2018-02-10T00:58:30.273Z,1.71
2018-02-10T00:59:10.814Z,1.74
2018-02-10T00:59:51.403Z,1.7
2018-02-10T01:00:31.949Z,1.68
2018-02-10T01:01:12.549Z,1.66
2018-02-10T01:01:53.108Z,1.68
2018-02-10T01:02:33.664Z,1.68
2018-02-10T01:03:14.211Z,1.66
2018-02-10T01:03:54.783Z,1.66
2018-02-10T01:04:35.337Z,1.67
2018-02-10T01:05:15.872Z,1.7
2018-02-10T01:05:56.427Z,1.63
2018-02-10T01:06:36.987Z,1.62
2018-02-10T01:07:17.543Z,1.6
2018-02-10T01:07:58.127Z,1.59
2018-02-10T01:08:38.707Z,1.63
2018-02-10T01:09:19.203Z,1.63
2018-02-10T01:09:59.751Z,1.68
2018-02-10T01:10:40.333Z,1.66
2018-02-10T01:11:20.901Z,1.7
2018-02-10T01:12:01.446Z,1.56
2018-02-10T01:12:41.999Z,1.67
2018-02-10T01:13:22.551Z,1.53
2018-02-10T01:14:03.135Z,1.56
2018-02-10T01:14:43.676Z,1.53
2018-02-10T01:15:24.212Z,1.49
2018-02-10T01:16:04.773Z,1.53
2018-02-10T01:16:45.313Z,1.45
2018-02-10T01:17:25.842Z,1.62
2018-02-10T01:18:06.397Z,1.63
2018-02-10T01:18:46.949Z,1.68
2018-02-10T01:19:27.500Z,1.63
2018-02-10T01:20:08.039Z,1.58
2018-02-10T01:20:48.604Z,1.62
2018-02-10T01:21:29.157Z,1.59
2018-02-10T01:22:09.710Z,1.66
2018-02-10T01:22:50.288Z,1.55
2018-02-10T01:23:30.884Z,1.59
2018-02-10T01:24:11.448Z,1.66
2018-02-10T01:24:51.991Z,1.53
2018-02-10T01:25:32.563Z,1.63
2018-02-10T01:26:13.112Z,1.63
2018-02-10T01:26:53.738Z,1.58
2018-02-10T01:27:34.299Z,1.68
2018-02-10T01:28:14.878Z,1.63
2018-02-10T01:28:55.421Z,1.59
2018-02-10T01:29:35.959Z,1.68
2018-02-10T01:30:16.482Z,1.62
2018-02-10T01:30:57.030Z,1.59
2018-02-10T01:31:37.574Z,1.6
2018-02-10T01:32:18.129Z,1.58
2018-02-10T01:32:58.685Z,1.59
2018-02-10T01:33:39.242Z,1.62
2018-02-10T01:34:19.876Z,1.62
2018-02-10T01:35:00.474Z,1.59
2018-02-10T01:35:41.031Z,1.62
2018-02-10T01:36:21.603Z,1.63
2018-02-10T01:37:02.118Z,1.6
2018-02-10T01:37:42.650Z,1.62
2018-02-10T01:38:23.242Z,1.66
2018-02-10T01:39:03.820Z,1.58
2018-02-10T01:39:44.376Z,1.62
2018-02-10T01:40:24.924Z,1.67
2018-02-10T01:41:05.468Z,1.59
2018-02-10T01:41:46.019Z,1.68
2018-02-10T01:42:26.950Z,1.52
2018-02-10T01:43:07.512Z,1.56
2018-02-10T01:43:48.073Z,1.63
2018-02-10T01:44:28.656Z,1.7
2018-02-10T01:45:09.153Z,1.53
2018-02-10T01:45:49.690Z,1.62
2018-02-10T01:46:30.265Z,1.58
2018-02-10T01:47:10.824Z,1.62
2018-02-10T01:47:51.429Z,1.63
2018-02-10T01:48:31.997Z,1.59
2018-02-10T01:49:12.535Z,1.66
2018-02-10T01:49:53.147Z,1.63
2018-02-10T01:50:34.080Z,1.53
2018-02-10T01:51:14.661Z,1.67
2018-02-10T01:51:55.227Z,1.66
2018-02-10T01:52:35.790Z,1.55
2018-02-10T01:53:16.348Z,1.59
2018-02-10T01:53:56.968Z,1.63
2018-02-10T01:54:37.525Z,1.55
2018-02-10T01:55:18.084Z,1.66
2018-02-10T01:55:58.623Z,1.62
2018-02-10T01:56:39.169Z,1.59
2018-02-10T01:57:19.727Z,1.6
2018-02-10T01:58:00.293Z,1.59
2018-02-10T01:58:41.421Z,1.58
2018-02-10T01:59:22.518Z,1.62
2018-02-10T02:00:03.068Z,1.62
2018-02-10T02:00:43.667Z,1.56
2018-02-10T02:01:24.227Z,1.66
2018-02-10T02:02:04.814Z,1.66
2018-02-10T02:02:45.387Z,1.59
2018-02-10T02:03:25.919Z,1.58
2018-02-10T02:04:06.467Z,1.6
2018-02-10T02:04:47.034Z,1.59
2018-02-10T02:05:27.679Z,1.62
2018-02-10T02:06:08.255Z,1.6
2018-02-10T02:06:48.786Z,1.59
2018-02-10T02:07:29.356Z,1.66
2018-02-10T02:08:09.946Z,1.73
2018-02-10T02:08:50.484Z,1.78
2018-02-10T02:09:31.003Z,1.7
2018-02-10T02:10:11.532Z,1.8
2018-02-10T02:10:52.064Z,1.74
2018-02-10T02:11:32.705Z,1.7
2018-02-10T02:12:13.241Z,1.68
2018-02-10T02:12:53.787Z,1.8
2018-02-10T02:13:34.337Z,1.68
2018-02-10T02:14:14.891Z,1.71
2018-02-10T02:14:55.427Z,1.7
2018-02-10T02:15:35.964Z,1.68
2018-02-10T02:16:16.502Z,1.74
2018-02-10T02:16:57.085Z,1.7
2018-02-10T02:17:37.662Z,1.68
2018-02-10T02:18:18.250Z,1.68
2018-02-10T02:18:58.777Z,1.66
2018-02-10T02:19:41.524Z,1.62
2018-02-10T02:20:21.774Z,1.68
2018-02-10T02:21:02.346Z,1.63
2018-02-10T02:21:42.919Z,1.67
2018-02-10T02:22:23.491Z,1.66
2018-02-10T02:23:04.022Z,1.58
2018-02-10T02:23:44.642Z,1.67
2018-02-10T02:24:25.916Z,1.68
2018-02-10T02:25:06.472Z,1.73
2018-02-10T02:25:47.013Z,1.74
2018-02-10T02:26:27.610Z,1.7
2018-02-10T02:27:08.183Z,1.67
2018-02-10T02:27:48.746Z,1.66
2018-02-10T02:28:29.396Z,1.68
2018-02-10T02:29:09.951Z,1.7
2018-02-10T02:29:50.521Z,1.74
2018-02-10T02:30:31.052Z,1.63
2018-02-10T02:31:11.644Z,1.58
2018-02-10T02:31:52.334Z,1.68
2018-02-10T02:32:32.891Z,1.68
2018-02-10T02:33:13.443Z,1.7
2018-02-10T02:33:53.987Z,1.68
2018-02-10T02:34:34.530Z,1.73
2018-02-10T02:35:15.077Z,1.66
2018-02-10T02:35:55.621Z,1.7
2018-02-10T02:36:36.178Z,1.8
2018-02-10T02:37:16.778Z,1.71
2018-02-10T02:37:57.271Z,1.78
2018-02-10T02:38:37.830Z,1.7
2018-02-10T02:39:18.512Z,1.7
2018-02-10T02:39:59.083Z,1.67
2018-02-10T02:40:39.611Z,1.63
2018-02-10T02:41:20.159Z,1.71
2018-02-10T02:42:00.708Z,1.68
2018-02-10T02:42:41.260Z,1.66
2018-02-10T02:43:22.146Z,1.63
2018-02-10T02:44:02.707Z,1.68
2018-02-10T02:44:43.280Z,1.74
2018-02-10T02:45:23.826Z,1.62
2018-02-10T02:46:04.378Z,1.6
2018-02-10T02:46:44.922Z,1.68
2018-02-10T02:47:25.452Z,1.66
2018-02-10T02:48:06.006Z,1.73
2018-02-10T02:48:46.527Z,1.68
2018-02-10T02:49:27.069Z,1.71
2018-02-10T02:50:07.652Z,1.63
2018-02-10T02:50:48.209Z,1.67
2018-02-10T02:51:28.785Z,1.67
2018-02-10T02:52:09.367Z,1.7
2018-02-10T02:52:49.923Z,1.71
2018-02-10T02:53:30.462Z,1.7
2018-02-10T02:54:11.023Z,1.74
2018-02-10T02:54:51.594Z,1.66
2018-02-10T02:55:32.167Z,1.62
2018-02-10T02:56:12.730Z,1.63
2018-02-10T02:56:53.298Z,1.66
2018-02-10T02:57:33.864Z,1.73
2018-02-10T02:58:14.465Z,1.6
2018-02-10T02:58:54.998Z,1.63
2018-02-10T02:59:35.560Z,1.58
2018-02-10T03:00:16.116Z,1.66
2018-02-10T03:00:56.756Z,1.66
2018-02-10T03:01:37.402Z,1.59
2018-02-10T03:02:18.014Z,1.6
2018-02-10T03:02:58.572Z,1.66
2018-02-10T03:03:39.149Z,1.66
2018-02-10T03:04:19.762Z,1.63
2018-02-10T03:05:00.372Z,1.7
2018-02-10T03:05:41.189Z,1.68
2018-02-10T03:06:21.872Z,1.63
2018-02-10T03:07:02.442Z,1.66
2018-02-10T03:07:42.986Z,1.63
2018-02-10T03:08:23.553Z,1.58
2018-02-10T03:09:04.098Z,1.62
2018-02-10T03:09:44.648Z,1.6
2018-02-10T03:10:25.181Z,1.62
2018-02-10T03:11:05.731Z,1.53
2018-02-10T03:11:46.273Z,1.56
2018-02-10T03:12:26.856Z,1.48
2018-02-10T03:13:07.416Z,1.49
2018-02-10T03:13:47.970Z,1.45
2018-02-10T03:14:28.663Z,1.48
2018-02-10T03:15:09.256Z,1.53
2018-02-10T03:15:49.808Z,1.55
2018-02-10T03:16:30.354Z,1.44
2018-02-10T03:17:10.900Z,1.55
2018-02-10T03:17:51.456Z,1.52
2018-02-10T03:18:31.989Z,1.5
2018-02-10T03:19:12.583Z,1.48
2018-02-10T03:19:53.116Z,1.48
2018-02-10T03:20:33.674Z,1.44
2018-02-10T03:21:14.241Z,1.48
2018-02-10T03:21:54.790Z,1.52
2018-02-10T03:22:35.372Z,1.48
2018-02-10T03:23:15.922Z,1.45
2018-02-10T03:23:56.501Z,1.5
2018-02-10T03:24:37.066Z,1.49
2018-02-10T03:25:17.621Z,1.55
2018-02-10T03:25:58.266Z,1.48
2018-02-10T03:26:38.823Z,1.5
2018-02-10T03:27:19.354Z,1.5
2018-02-10T03:27:59.936Z,1.5
2018-02-10T03:28:40.480Z,1.44
2018-02-10T03:29:21.045Z,1.45
2018-02-10T03:30:01.602Z,1.45
2018-02-10T03:30:42.150Z,1.41
2018-02-10T03:31:22.742Z,1.45
2018-02-10T03:32:03.323Z,1.42
2018-02-10T03:32:43.908Z,1.49
2018-02-10T03:33:24.452Z,1.45
2018-02-10T03:34:04.993Z,1.42
2018-02-10T03:34:45.536Z,1.48
2018-02-10T03:35:26.082Z,1.45
2018-02-10T03:36:06.645Z,1.42
2018-02-10T03:36:47.201Z,1.44
2018-02-10T03:37:27.756Z,1.28
2018-02-10T03:38:08.301Z,1.38
2018-02-10T03:38:48.844Z,1.31
2018-02-10T03:39:29.391Z,1.32
2018-02-10T03:40:09.941Z,1.35
2018-02-10T03:40:50.505Z,1.26
2018-02-10T03:41:31.058Z,1.32
2018-02-10T03:42:11.681Z,1.3
2018-02-10T03:42:52.231Z,1.28
2018-02-10T03:43:32.801Z,1.3
2018-02-10T03:44:13.350Z,1.22
2018-02-10T03:44:53.908Z,1.28
2018-02-10T03:45:34.462Z,1.3
2018-02-10T03:46:15.025Z,1.32
2018-02-10T03:46:55.566Z,1.23
2018-02-10T03:47:36.135Z,1.3
2018-02-10T03:48:16.656Z,1.31
2018-02-10T03:48:57.206Z,1.32
2018-02-10T03:49:37.742Z,1.3
2018-02-10T03:50:18.298Z,1.37
2018-02-10T03:50:58.844Z,1.28
2018-02-10T03:51:39.412Z,1.35
2018-02-10T03:52:19.921Z,1.37
2018-02-10T03:53:00.466Z,1.31
2018-02-10T03:53:41.020Z,1.3
2018-02-10T03:54:21.570Z,1.26
2018-02-10T03:55:02.146Z,1.3
2018-02-10T03:55:42.721Z,1.26
2018-02-10T03:56:23.256Z,1.26
2018-02-10T03:57:03.837Z,1.3
2018-02-10T03:57:44.359Z,1.34
2018-02-10T03:58:24.939Z,1.32
2018-02-10T03:59:05.479Z,1.28
2018-02-10T03:59:46.046Z,1.3
2018-02-10T04:00:26.630Z,1.28
2018-02-10T04:01:07.210Z,1.19
2018-02-10T04:01:47.785Z,1.26
2018-02-10T04:02:28.345Z,1.26
2018-02-10T04:03:08.893Z,1.32
2018-02-10T04:03:49.446Z,1.24
2018-02-10T04:04:29.995Z,1.2
2018-02-10T04:05:10.548Z,1.3
2018-02-10T04:05:51.095Z,1.2
2018-02-10T04:06:31.639Z,1.31
2018-02-10T04:07:12.199Z,1.24
2018-02-10T04:07:52.779Z,1.24
2018-02-10T04:08:33.322Z,1.34
2018-02-10T04:09:13.873Z,1.3
2018-02-10T04:09:54.426Z,1.34
2018-02-10T04:10:34.973Z,1.32
2018-02-10T04:11:15.530Z,1.34
2018-02-10T04:11:56.068Z,1.37
2018-02-10T04:12:36.608Z,1.34
2018-02-10T04:13:17.187Z,1.37
2018-02-10T04:13:57.738Z,1.35
2018-02-10T04:14:38.281Z,1.28
2018-02-10T04:15:18.860Z,1.34
2018-02-10T04:15:59.386Z,1.38
2018-02-10T04:16:39.964Z,1.32
2018-02-10T04:17:20.538Z,1.32
2018-02-10T04:18:01.092Z,1.31
2018-02-10T04:18:41.638Z,1.32
2018-02-10T04:19:22.189Z,1.32
2018-02-10T04:20:02.743Z,1.3
2018-02-10T04:20:43.295Z,1.26
2018-02-10T04:21:23.870Z,1.31
2018-02-10T04:22:04.440Z,1.34
2018-02-10T04:22:44.991Z,1.3
2018-02-10T04:23:25.525Z,1.37
2018-02-10T04:24:06.136Z,1.32
2018-02-10T04:24:46.727Z,1.32
2018-02-10T04:25:27.278Z,1.32
2018-02-10T04:26:07.836Z,1.28
2018-02-10T04:26:48.441Z,1.35
2018-02-10T04:27:29.020Z,1.35
2018-02-10T04:28:09.589Z,1.34
2018-02-10T04:28:50.146Z,1.34
2018-02-10T04:29:30.700Z,1.31
2018-02-10T04:30:11.289Z,1.37
2018-02-10T04:30:51.797Z,1.37
2018-02-10T04:31:32.355Z,1.42
2018-02-10T04:32:13.017Z,1.42
2018-02-10T04:32:53.567Z,1.4
2018-02-10T04:33:34.122Z,1.31
2018-02-10T04:34:14.680Z,1.4
2018-02-10T04:34:55.268Z,1.38
2018-02-10T04:35:35.803Z,1.31
2018-02-10T04:36:16.359Z,1.38
2018-02-10T04:36:56.923Z,1.38
2018-02-10T04:37:37.488Z,1.38
2018-02-10T04:38:18.053Z,1.42
2018-02-10T04:38:58.622Z,1.38
2018-02-10T04:39:39.188Z,1.32
2018-02-10T04:40:19.740Z,1.26
2018-02-10T04:41:00.290Z,1.37
2018-02-10T04:41:40.836Z,1.3
2018-02-10T04:42:21.390Z,1.35
2018-02-10T04:43:01.943Z,1.3
2018-02-10T04:43:42.502Z,1.37
2018-02-10T04:44:23.052Z,1.37
2018-02-10T04:45:03.593Z,1.35
2018-02-10T04:45:44.155Z,1.3
2018-02-10T04:46:24.709Z,1.34
2018-02-10T04:47:05.274Z,1.26
2018-02-10T04:47:45.844Z,1.31
2018-02-10T04:48:26.412Z,1.31
2018-02-10T04:49:06.986Z,1.38
2018-02-10T04:49:47.557Z,1.31
2018-02-10T04:50:28.095Z,1.31
2018-02-10T04:51:08.652Z,1.34
2018-02-10T04:51:49.197Z,1.32
2018-02-10T04:52:29.749Z,1.32
2018-02-10T04:53:10.298Z,1.37
2018-02-10T04:53:50.846Z,1.37
2018-02-10T04:54:31.401Z,1.32
2018-02-10T04:55:11.946Z,1.32
2018-02-10T04:55:52.506Z,1.26
2018-02-10T04:56:33.065Z,1.28
2018-02-10T04:57:13.615Z,1.35
2018-02-10T04:57:54.174Z,1.31
2018-02-10T04:58:34.785Z,1.38
2018-02-10T04:59:15.631Z,1.31
2018-02-10T04:59:56.538Z,1.32
2018-02-10T05:00:40.541Z,1.34
2018-02-10T05:01:21.213Z,1.31
2018-02-10T05:02:02.249Z,1.35
2018-02-10T05:02:42.803Z,1.3
2018-02-10T05:03:23.378Z,1.3
2018-02-10T05:04:03.925Z,1.3
2018-02-10T05:04:44.483Z,1.28
2018-02-10T05:05:25.052Z,1.31
2018-02-10T05:06:05.634Z,1.31
2018-02-10T05:06:46.182Z,1.31
2018-02-10T05:07:26.758Z,1.3
2018-02-10T05:08:07.347Z,1.3
2018-02-10T05:08:47.890Z,1.17
2018-02-10T05:09:28.453Z,1.28
2018-02-10T05:10:09.031Z,1.28
2018-02-10T05:10:49.572Z,1.2
2018-02-10T05:11:30.123Z,1.28
2018-02-10T05:12:10.670Z,1.31
2018-02-10T05:12:51.223Z,1.26
2018-02-10T05:13:31.776Z,1.24
2018-02-10T05:14:12.327Z,1.2
2018-02-10T05:14:52.877Z,1.28
2018-02-10T05:15:33.448Z,1.3
2018-02-10T05:16:13.981Z,1.3
2018-02-10T05:16:54.533Z,1.31
2018-02-10T05:17:35.082Z,1.31
2018-02-10T05:18:15.636Z,1.31
2018-02-10T05:18:56.204Z,1.32
2018-02-10T05:19:36.736Z,1.31
2018-02-10T05:20:17.300Z,1.3
2018-02-10T05:20:57.849Z,1.31
2018-02-10T05:21:38.394Z,1.32
2018-02-10T05:22:18.942Z,1.28
2018-02-10T05:22:59.487Z,1.3
2018-02-10T05:23:40.032Z,1.31
2018-02-10T05:24:20.576Z,1.34
2018-02-10T05:25:01.129Z,1.32
2018-02-10T05:25:41.696Z,1.32
2018-02-10T05:26:22.244Z,1.34
2018-02-10T05:27:02.800Z,1.32
2018-02-10T05:27:43.365Z,1.37
2018-02-10T05:28:23.966Z,1.24
2018-02-10T05:29:04.518Z,1.3
2018-02-10T05:29:45.100Z,1.31
2018-02-10T05:30:25.647Z,1.35
2018-02-10T05:31:06.246Z,1.28
2018-02-10T05:31:46.796Z,1.22
2018-02-10T05:32:27.408Z,1.28
2018-02-10T05:33:07.974Z,1.31
2018-02-10T05:33:48.514Z,1.34
2018-02-10T05:34:29.060Z,1.31
2018-02-10T05:35:09.604Z,1.23
2018-02-10T05:35:50.153Z,1.26
2018-02-10T05:36:30.718Z,1.32
2018-02-10T05:37:11.266Z,1.32
2018-02-10T05:37:51.808Z,1.28
2018-02-10T05:38:32.355Z,1.32
2018-02-10T05:39:12.916Z,1.31
2018-02-10T05:39:53.468Z,1.32
2018-02-10T05:40:34.073Z,1.34
2018-02-10T05:41:14.578Z,1.32
2018-02-10T05:41:55.128Z,1.31
2018-02-10T05:42:35.675Z,1.31
2018-02-10T05:43:16.238Z,1.38
2018-02-10T05:43:56.804Z,1.35
2018-02-10T05:44:37.366Z,1.34
2018-02-10T05:45:17.942Z,1.28
2018-02-10T05:45:58.519Z,1.31
2018-02-10T05:46:39.071Z,1.31
2018-02-10T05:47:19.622Z,1.35
2018-02-10T05:48:00.173Z,1.37
2018-02-10T05:48:40.723Z,1.37
2018-02-10T05:49:21.273Z,1.34
2018-02-10T05:50:02.027Z,1.41
2018-02-10T05:50:42.583Z,1.4
2018-02-10T05:51:23.138Z,1.42
2018-02-10T05:52:03.686Z,1.4
2018-02-10T05:52:44.246Z,1.38
2018-02-10T05:53:24.800Z,1.45
2018-02-10T05:54:05.345Z,1.44
2018-02-10T05:54:45.905Z,1.42
2018-02-10T05:55:26.461Z,1.42
2018-02-10T05:56:07.019Z,1.49
2018-02-10T05:56:47.566Z,1.41
2018-02-10T05:57:28.120Z,1.45
2018-02-10T05:58:08.703Z,1.45
2018-02-10T05:58:49.248Z,1.49
2018-02-10T05:59:29.804Z,1.53
2018-02-10T06:00:10.364Z,1.45
2018-02-10T06:00:50.976Z,1.49
2018-02-10T06:01:31.556Z,1.45
2018-02-10T06:02:12.115Z,1.41
2018-02-10T06:02:52.683Z,1.4
2018-02-10T06:03:33.272Z,1.41
2018-02-10T06:04:13.804Z,1.41
2018-02-10T06:04:54.377Z,1.37
2018-02-10T06:05:34.940Z,1.37
2018-02-10T06:06:15.500Z,1.42
2018-02-10T06:06:56.067Z,1.42
2018-02-10T06:07:36.620Z,1.4
2018-02-10T06:08:17.171Z,1.45
2018-02-10T06:08:57.739Z,1.35
2018-02-10T06:09:38.315Z,1.4
2018-02-10T06:10:18.878Z,1.44
2018-02-10T06:10:59.428Z,1.42
2018-02-10T06:11:39.986Z,1.45
2018-02-10T06:12:20.567Z,1.4
2018-02-10T06:13:01.128Z,1.48
2018-02-10T06:13:41.675Z,1.45
2018-02-10T06:14:22.209Z,1.45
2018-02-10T06:15:02.763Z,1.48
2018-02-10T06:15:43.310Z,1.48
2018-02-10T06:16:23.867Z,1.49
2018-02-10T06:17:04.416Z,1.49
2018-02-10T06:17:45.020Z,1.52
2018-02-10T06:18:25.521Z,1.45
2018-02-10T06:19:06.067Z,1.52
2018-02-10T06:19:46.623Z,1.49
2018-02-10T06:20:27.168Z,1.45
2018-02-10T06:21:07.715Z,1.48
2018-02-10T06:21:48.300Z,1.41
2018-02-10T06:22:28.852Z,1.45
2018-02-10T06:23:09.412Z,1.45
2018-02-10T06:23:49.978Z,1.45
2018-02-10T06:24:30.546Z,1.41
2018-02-10T06:25:11.105Z,1.38
2018-02-10T06:25:51.659Z,1.42
2018-02-10T06:26:32.222Z,1.38
2018-02-10T06:27:12.772Z,1.4
2018-02-10T06:27:53.365Z,1.41
2018-02-10T06:28:33.912Z,1.44
2018-02-10T06:29:14.463Z,1.45
2018-02-10T06:29:55.019Z,1.42
2018-02-10T06:30:35.567Z,1.44
2018-02-10T06:31:16.148Z,1.42
2018-02-10T06:31:56.708Z,1.38
2018-02-10T06:32:37.272Z,1.4
2018-02-10T06:33:17.820Z,1.41
2018-02-10T06:33:58.378Z,1.34
2018-02-10T06:34:38.928Z,1.4
2018-02-10T06:35:19.484Z,1.42
2018-02-10T06:36:00.039Z,1.4
2018-02-10T06:36:40.599Z,1.42
2018-02-10T06:37:21.149Z,1.5
2018-02-10T06:38:01.701Z,1.45
2018-02-10T06:38:42.257Z,1.45
2018-02-10T06:39:22.808Z,1.48
2018-02-10T06:40:03.352Z,1.41
2018-02-10T06:40:43.924Z,1.45
2018-02-10T06:41:24.440Z,1.41
2018-02-10T06:42:05.038Z,1.42
2018-02-10T06:42:45.567Z,1.31
2018-02-10T06:43:26.120Z,1.32
2018-02-10T06:44:06.672Z,1.31
2018-02-10T06:44:47.231Z,1.3
2018-02-10T06:45:27.784Z,1.32
2018-02-10T06:46:08.339Z,1.37
2018-02-10T06:46:48.877Z,1.23
2018-02-10T06:47:29.451Z,1.35
2018-02-10T06:48:10.014Z,1.31
2018-02-10T06:48:50.589Z,1.38
2018-02-10T06:49:31.171Z,1.34
2018-02-10T06:50:11.724Z,1.32
2018-02-10T06:50:52.278Z,1.32
2018-02-10T06:51:32.831Z,1.34
2018-02-10T06:52:13.362Z,1.31
2018-02-10T06:52:53.917Z,1.32
2018-02-10T06:53:34.480Z,1.28
2018-02-10T06:54:15.017Z,1.37
2018-02-10T06:54:55.568Z,1.37
2018-02-10T06:55:36.114Z,1.26
2018-02-10T06:56:16.659Z,1.35
2018-02-10T06:56:57.223Z,1.34
2018-02-10T06:57:37.785Z,1.31
2018-02-10T06:58:18.318Z,1.38
2018-02-10T06:58:58.876Z,1.35
2018-02-10T06:59:39.453Z,1.32
2018-02-10T07:00:20.005Z,1.32
2018-02-10T07:01:00.554Z,1.24
2018-02-10T07:01:41.129Z,1.28
2018-02-10T07:02:21.679Z,1.34
2018-02-10T07:03:02.229Z,1.31
2018-02-10T07:03:42.785Z,1.35
2018-02-10T07:04:23.336Z,1.31
2018-02-10T07:05:03.904Z,1.42
2018-02-10T07:05:44.463Z,1.41
2018-02-10T07:06:25.018Z,1.4
2018-02-10T07:07:05.593Z,1.42
2018-02-10T07:07:46.146Z,1.4
2018-02-10T07:08:26.686Z,1.35
2018-02-10T07:09:07.247Z,1.31
2018-02-10T07:09:47.822Z,1.3
2018-02-10T07:10:28.367Z,1.31
2018-02-10T07:11:08.923Z,1.37
2018-02-10T07:11:49.478Z,1.26
2018-02-10T07:12:30.052Z,1.34
2018-02-10T07:13:10.631Z,1.24
2018-02-10T07:13:51.226Z,1.32
2018-02-10T07:14:31.788Z,1.34
2018-02-10T07:15:12.356Z,1.31
2018-02-10T07:15:52.977Z,1.37
2018-02-10T07:16:33.536Z,1.26
2018-02-10T07:17:14.090Z,1.34
2018-02-10T07:17:54.646Z,1.22
2018-02-10T07:18:35.198Z,1.31
2018-02-10T07:19:15.776Z,1.3
2018-02-10T07:19:56.294Z,1.26
2018-02-10T07:20:36.842Z,1.32
2018-02-10T07:21:17.391Z,1.34
2018-02-10T07:21:57.957Z,1.31
2018-02-10T07:23:45.451Z,1.4
2018-02-10T07:24:25.986Z,1.41
2018-02-10T07:25:06.541Z,1.45
2018-02-10T07:25:47.140Z,1.44
2018-02-10T07:26:27.661Z,1.49
2018-02-10T07:27:08.213Z,1.42
2018-02-10T07:27:48.773Z,1.45
2018-02-10T07:28:29.289Z,1.5
2018-02-10T07:29:09.895Z,1.48
2018-02-10T07:29:50.445Z,1.49
2018-02-10T07:30:31.092Z,1.5
2018-02-10T07:31:11.638Z,1.52
2018-02-10T07:31:52.192Z,1.49
2018-02-10T07:32:32.723Z,1.48
2018-02-10T07:33:13.255Z,1.49
2018-02-10T07:33:53.863Z,1.49
2018-02-10T07:34:34.396Z,1.41
2018-02-10T07:35:14.934Z,1.52
2018-02-10T07:35:55.514Z,1.49
2018-02-10T07:36:36.144Z,1.48
2018-02-10T07:37:16.804Z,1.45
2018-02-10T07:37:57.363Z,1.42
2018-02-10T07:38:37.927Z,1.3
2018-02-10T07:39:18.462Z,1.34
2018-02-10T07:39:58.993Z,1.34
2018-02-10T07:40:39.615Z,1.26
2018-02-10T07:41:20.229Z,1.3
2018-02-10T07:42:00.808Z,1.3
2018-02-10T07:42:41.402Z,1.2
2018-02-10T07:43:21.998Z,1.17
2018-02-10T07:44:02.630Z,1.16
2018-02-10T07:44:43.199Z,1.23
2018-02-10T07:45:23.762Z,1.23
2018-02-10T07:46:04.386Z,1.19
2018-02-10T07:46:45.257Z,1.22
2018-02-10T07:47:25.712Z,1.22
2018-02-10T07:48:06.263Z,1.26
2018-02-10T07:48:46.883Z,1.19
2018-02-10T07:49:27.417Z,1.16
2018-02-10T07:50:07.996Z,1.3
2018-02-10T07:50:48.556Z,1.34
2018-02-10T07:51:29.101Z,1.34
2018-02-10T07:52:09.810Z,1.26
2018-02-10T07:52:50.443Z,1.32
2018-02-10T07:53:30.985Z,1.37
2018-02-10T07:54:11.841Z,1.31
2018-02-10T07:54:52.674Z,1.42
2018-02-10T07:55:33.239Z,1.42
2018-02-10T07:56:13.900Z,1.42
2018-02-10T07:56:54.652Z,1.41
2018-02-10T07:57:35.491Z,1.49
2018-02-10T07:58:16.048Z,1.49
2018-02-10T07:58:56.731Z,1.52
2018-02-10T07:59:37.291Z,1.48
2018-02-10T08:00:17.884Z,1.5
2018-02-10T08:00:58.570Z,1.52
2018-02-10T08:01:39.133Z,1.49
2018-02-10T08:02:19.729Z,1.55
2018-02-10T08:03:00.341Z,1.44
2018-02-10T08:03:40.904Z,1.44
2018-02-10T08:04:21.395Z,1.49
2018-02-10T08:05:02.005Z,1.55
2018-02-10T08:05:42.560Z,1.55
2018-02-10T08:06:23.100Z,1.56
2018-02-10T08:07:03.647Z,1.56
2018-02-10T08:07:44.270Z,1.52
2018-02-10T08:08:24.806Z,1.52
2018-02-10T08:09:05.408Z,1.63
2018-02-10T08:09:46.022Z,1.56
2018-02-10T08:10:26.534Z,1.59
2018-02-10T08:11:07.108Z,1.59
2018-02-10T08:11:47.693Z,1.6
2018-02-10T08:12:28.323Z,1.53
2018-02-10T08:13:08.901Z,1.52
2018-02-10T08:13:49.446Z,1.45
2018-02-10T08:14:30.053Z,1.52
2018-02-10T08:15:10.661Z,1.48
2018-02-10T08:15:51.208Z,1.55
2018-02-10T08:16:31.804Z,1.49
2018-02-10T08:17:12.353Z,1.52
2018-02-10T08:17:52.952Z,1.62
2018-02-10T08:18:33.576Z,1.53
2018-02-10T08:19:14.159Z,1.55
2018-02-10T08:19:54.661Z,1.68
2018-02-10T08:20:35.221Z,1.59
2018-02-10T08:21:15.831Z,1.56
2018-02-10T08:21:56.348Z,1.66
2018-02-10T08:22:36.943Z,1.55
2018-02-10T08:23:17.490Z,1.62
2018-02-10T08:23:58.058Z,1.62
2018-02-10T08:24:38.684Z,1.62
2018-02-10T08:25:19.322Z,1.62
2018-02-10T08:25:59.890Z,1.63
2018-02-10T08:26:40.808Z,1.6
2018-02-10T08:27:21.555Z,1.59
2018-02-10T08:28:02.321Z,1.66
2018-02-10T08:28:43.041Z,1.5
2018-02-10T08:29:23.690Z,1.52
2018-02-10T08:30:04.329Z,1.52
2018-02-10T08:30:45.034Z,1.52
2018-02-10T08:31:25.694Z,1.55
2018-02-10T08:32:06.364Z,1.6
2018-02-10T08:32:47.014Z,1.5
2018-02-10T08:33:27.697Z,1.63
2018-02-10T08:34:08.288Z,1.59
2018-02-10T08:34:48.844Z,1.59
2018-02-10T08:35:29.503Z,1.66
2018-02-10T08:36:10.081Z,1.62
2018-02-10T08:36:50.647Z,1.59
2018-02-10T08:37:31.195Z,1.6
2018-02-10T08:38:11.745Z,1.71
2018-02-10T08:38:52.301Z,1.66
2018-02-10T08:39:32.835Z,1.68
2018-02-10T08:40:13.405Z,1.68
2018-02-10T08:40:53.950Z,1.71
2018-02-10T08:41:34.506Z,1.67
2018-02-10T08:42:15.041Z,1.74
2018-02-10T08:42:55.575Z,1.76
2018-02-10T08:43:36.152Z,1.7
2018-02-10T08:44:16.752Z,1.77
2018-02-10T08:44:57.318Z,1.78
2018-02-10T08:45:37.873Z,1.78
2018-02-10T08:46:18.433Z,1.78
2018-02-10T08:46:59.001Z,1.76
2018-02-10T08:47:39.610Z,1.77
2018-02-10T08:48:20.168Z,1.76
2018-02-10T08:49:00.693Z,1.81
2018-02-10T08:49:41.286Z,1.76
2018-02-10T08:50:21.872Z,1.78
2018-02-10T08:51:02.417Z,1.78
2018-02-10T08:51:42.968Z,1.85
2018-02-10T08:52:23.522Z,1.88
2018-02-10T08:53:04.135Z,1.91
2018-02-10T08:53:44.730Z,1.94
2018-02-10T08:54:25.337Z,1.88
2018-02-10T08:55:05.937Z,1.81
2018-02-10T08:55:46.472Z,1.87
2018-02-10T08:56:27.032Z,1.81
2018-02-10T08:57:07.578Z,1.88
2018-02-10T08:57:48.133Z,1.88
2018-02-10T08:58:28.687Z,1.88
2018-02-10T08:59:09.338Z,1.84
2018-02-10T08:59:49.928Z,1.78
2018-02-10T09:00:30.534Z,1.84
2018-02-10T09:01:11.159Z,1.78
2018-02-10T09:01:51.747Z,1.76
2018-02-10T09:02:32.322Z,1.78
2018-02-10T09:03:12.855Z,1.78
2018-02-10T09:03:53.444Z,1.77